createdAt,value
2022-09-16T00:02:12.577Z,99173.80
2022-09-16T00:04:46.773Z,99174.00
2022-09-16T00:07:20.946Z,99183.00
2022-09-16T00:09:54.832Z,99183.00
2022-09-16T00:12:28.695Z,99181.60
2022-09-16T00:15:02.466Z,99182.80
2022-09-16T00:17:38.022Z,99187.00
2022-09-16T00:20:12.895Z,99188.20
2022-09-16T00:22:46.717Z,99194.60
2022-09-16T00:25:20.802Z,99196.60
2022-09-16T00:27:54.459Z,99197.60
2022-09-16T00:30:28.272Z,99196.40
2022-09-16T00:33:02.038Z,99206.80
2022-09-16T00:35:35.616Z,99203.00
2022-09-16T00:38:09.242Z,99198.00
2022-09-16T00:40:50.833Z,99198.60
2022-09-16T00:43:24.648Z,99189.80
2022-09-16T00:46:05.681Z,99187.20
2022-09-16T00:48:39.729Z,99186.80
2022-09-16T00:51:18.131Z,99193.80
2022-09-16T00:53:58.087Z,99194.40
2022-09-16T00:56:37.283Z,99190.20
2022-09-16T00:59:18.905Z,99184.80
2022-09-16T01:01:54.982Z,99193.40
2022-09-16T01:04:33.898Z,99195.40
2022-09-16T01:07:08.448Z,99188.80
2022-09-16T01:09:42.978Z,99196.00
2022-09-16T01:12:16.849Z,99190.60
2022-09-16T01:14:58.252Z,99198.80
2022-09-16T01:18:00.510Z,99200.00
2022-09-16T01:21:19.465Z,99199.20
2022-09-16T01:24:46.006Z,99201.00
2022-09-16T01:27:42.374Z,99201.60
2022-09-16T01:30:44.657Z,99205.60
2022-09-16T01:33:32.845Z,99202.20
2022-09-16T01:36:24.611Z,99205.40
2022-09-16T01:39:15.633Z,99208.80
2022-09-16T01:42:09.139Z,99205.40
2022-09-16T01:44:53.600Z,99206.80
2022-09-16T01:47:43.087Z,99208.80
2022-09-16T01:50:26.386Z,99202.00
2022-09-16T01:53:18.086Z,99204.60
2022-09-16T01:55:59.005Z,99203.20
2022-09-16T01:58:40.858Z,99204.20
2022-09-16T02:01:23.669Z,99203.80
2022-09-16T02:04:07.069Z,99200.40
2022-09-16T02:06:45.950Z,99194.00
2022-09-16T02:09:25.777Z,99201.40
2022-09-16T02:12:05.520Z,99199.80
2022-09-16T02:14:44.434Z,99202.60
2022-09-16T02:17:23.613Z,99201.40
2022-09-16T02:20:04.112Z,99202.00
2022-09-16T02:22:43.215Z,99196.20
2022-09-16T02:25:20.560Z,99197.80
2022-09-16T02:27:56.199Z,99202.40
2022-09-16T02:30:30.223Z,99208.00
2022-09-16T02:33:10.232Z,99213.40
2022-09-16T02:35:47.686Z,99211.60
2022-09-16T02:38:29.844Z,99208.40
2022-09-16T02:41:05.391Z,99214.00
2022-09-16T02:43:39.761Z,99214.00
2022-09-16T02:46:25.551Z,99212.80
2022-09-16T02:49:14.162Z,99213.20
2022-09-16T02:52:06.328Z,99217.40
2022-09-16T02:54:48.807Z,99217.60
2022-09-16T02:57:23.074Z,99215.80
2022-09-16T02:59:57.501Z,99215.80
2022-09-16T03:02:33.026Z,99216.60
2022-09-16T03:05:08.423Z,99214.20
2022-09-16T03:07:45.065Z,99215.80
2022-09-16T03:10:19.043Z,99215.40
2022-09-16T03:13:10.679Z,99207.40
2022-09-16T03:16:05.601Z,99208.40
2022-09-16T03:18:58.409Z,99206.00
2022-09-16T03:21:42.608Z,99206.20
2022-09-16T03:24:29.053Z,99207.60
2022-09-16T03:27:10.222Z,99215.80
2022-09-16T03:29:50.702Z,99216.00
2022-09-16T03:32:28.563Z,99218.40
2022-09-16T03:35:11.081Z,99224.00
2022-09-16T03:37:48.012Z,99227.60
2022-09-16T03:40:24.178Z,99226.80
2022-09-16T03:42:58.908Z,99228.80
2022-09-16T03:45:32.930Z,99227.20
2022-09-16T03:48:07.726Z,99227.80
2022-09-16T03:50:42.315Z,99224.20
2022-09-16T03:53:16.589Z,99220.00
2022-09-16T03:55:52.685Z,99222.20
2022-09-16T03:58:26.518Z,99214.60
2022-09-16T04:01:00.365Z,99214.20
2022-09-16T04:03:34.343Z,99221.20
2022-09-16T04:06:09.091Z,99217.00
2022-09-16T04:08:44.605Z,99221.00
2022-09-16T04:11:18.738Z,99219.40
2022-09-16T04:13:52.431Z,99222.20
2022-09-16T04:16:26.699Z,99214.40
2022-09-16T04:19:00.611Z,99215.60
2022-09-16T04:21:34.613Z,99215.40
2022-09-16T04:24:13.114Z,99219.80
2022-09-16T04:26:47.703Z,99221.80
2022-09-16T04:29:21.784Z,99224.40
2022-09-16T04:31:56.016Z,99235.60
2022-09-16T04:34:33.976Z,99233.20
2022-09-16T04:37:11.206Z,99235.60
2022-09-16T04:39:47.390Z,99239.60
2022-09-16T04:42:21.415Z,99234.80
2022-09-16T04:44:55.455Z,99231.80
2022-09-16T04:47:29.561Z,99236.60
2022-09-16T04:50:03.287Z,99231.00
2022-09-16T04:52:37.150Z,99240.20
2022-09-16T04:55:12.144Z,99241.40
2022-09-16T04:57:45.826Z,99236.40
2022-09-16T05:00:22.185Z,99235.60
2022-09-16T05:02:56.773Z,99237.40
2022-09-16T05:05:31.363Z,99240.20
2022-09-16T05:08:05.699Z,99240.60
2022-09-16T05:10:39.401Z,99241.00
2022-09-16T05:13:13.639Z,99239.20
2022-09-16T05:15:51.006Z,99237.00
2022-09-16T05:18:25.088Z,99241.40
2022-09-16T05:21:05.148Z,99243.60
2022-09-16T05:23:45.821Z,99239.00
2022-09-16T05:26:23.206Z,99237.00
2022-09-16T05:28:57.375Z,99239.40
2022-09-16T05:31:34.126Z,99240.40
2022-09-16T05:34:13.533Z,99231.40
2022-09-16T05:36:49.515Z,99237.20
2022-09-16T05:39:25.245Z,99245.80
2022-09-16T05:42:03.602Z,99246.40
2022-09-16T05:44:37.765Z,99245.60
2022-09-16T05:47:11.630Z,99244.60
2022-09-16T05:49:45.732Z,99242.60
2022-09-16T05:52:19.393Z,99240.60
2022-09-16T05:54:53.191Z,99241.00
2022-09-16T05:57:27.542Z,99238.80
2022-09-16T06:00:01.620Z,99236.00
2022-09-16T06:02:35.612Z,99236.00
2022-09-16T06:05:10.457Z,99231.20
2022-09-16T06:07:44.196Z,99228.80
2022-09-16T06:10:18.708Z,99239.40
2022-09-16T06:12:52.494Z,99241.60
2022-09-16T06:15:26.384Z,99232.80
2022-09-16T06:18:05.531Z,99229.60
2022-09-16T06:20:42.871Z,99236.20
2022-09-16T06:23:16.851Z,99234.00
2022-09-16T06:25:50.891Z,99233.60
2022-09-16T06:28:24.665Z,99230.80
2022-09-16T06:31:10.496Z,99231.60
2022-09-16T06:33:47.034Z,99236.80
2022-09-16T06:36:23.290Z,99228.80
2022-09-16T06:38:57.471Z,99230.40
2022-09-16T06:41:33.538Z,99227.80
2022-09-16T06:44:07.885Z,99226.40
2022-09-16T06:46:41.869Z,99223.40
2022-09-16T06:49:16.935Z,99217.00
2022-09-16T06:51:52.299Z,99220.00
2022-09-16T06:54:28.478Z,99216.00
2022-09-16T06:57:05.020Z,99229.00
2022-09-16T06:59:41.998Z,99225.00
2022-09-16T07:02:18.196Z,99228.20
2022-09-16T07:04:54.913Z,99219.20
2022-09-16T07:07:33.986Z,99229.60
2022-09-16T07:10:09.912Z,99218.40
2022-09-16T07:12:48.759Z,99220.00
2022-09-16T07:15:27.468Z,99222.20
2022-09-16T07:18:03.015Z,99222.40
2022-09-16T07:20:37.903Z,99228.40
2022-09-16T07:23:12.380Z,99224.40
2022-09-16T07:25:48.146Z,99225.80
2022-09-16T07:28:22.495Z,99226.00
2022-09-16T07:30:57.278Z,99223.00
2022-09-16T07:33:32.307Z,99220.60
2022-09-16T07:36:10.379Z,99216.40
2022-09-16T07:38:45.516Z,99225.00
2022-09-16T07:41:22.850Z,99222.40
2022-09-16T07:43:59.479Z,99222.40
2022-09-16T07:46:37.025Z,99224.40
2022-09-16T07:49:13.384Z,99224.60
2022-09-16T07:51:47.984Z,99224.20
2022-09-16T07:54:22.915Z,99227.00
2022-09-16T07:56:59.062Z,99218.80
2022-09-16T07:59:35.240Z,99225.40
2022-09-16T08:02:12.185Z,99233.80
2022-09-16T08:04:46.924Z,99225.60
2022-09-16T08:07:21.153Z,99230.40
2022-09-16T08:09:55.810Z,99223.60
2022-09-16T08:12:33.043Z,99233.40
2022-09-16T08:15:08.638Z,99236.00
2022-09-16T08:17:42.417Z,99231.40
2022-09-16T08:20:16.583Z,99229.40
2022-09-16T08:22:52.770Z,99231.40
2022-09-16T08:25:28.966Z,99232.60
2022-09-16T08:28:02.847Z,99221.40
2022-09-16T08:30:38.221Z,99229.60
2022-09-16T08:33:12.584Z,99224.80
2022-09-16T08:35:46.941Z,99224.20
2022-09-16T08:38:20.690Z,99221.20
2022-09-16T08:40:59.973Z,99224.20
2022-09-16T08:43:41.003Z,99225.60
2022-09-16T08:46:24.694Z,99226.80
2022-09-16T08:49:07.757Z,99236.00
2022-09-16T08:51:45.256Z,99236.20
2022-09-16T08:54:30.828Z,99232.40
2022-09-16T08:57:10.985Z,99223.20
2022-09-16T08:59:54.274Z,99226.60
2022-09-16T09:02:44.519Z,99227.40
2022-09-16T09:05:35.791Z,99228.80
2022-09-16T09:08:32.994Z,99228.80
2022-09-16T09:11:18.550Z,99229.60
2022-09-16T09:14:19.403Z,99237.40
2022-09-16T09:17:02.615Z,99231.60
2022-09-16T09:20:01.719Z,99231.00
2022-09-16T09:23:00.351Z,99228.00
2022-09-16T09:25:50.956Z,99225.40
2022-09-16T09:28:54.839Z,99220.60
2022-09-16T09:31:51.370Z,99223.60
2022-09-16T09:34:46.235Z,99229.00
2022-09-16T09:37:49.410Z,99228.20
2022-09-16T09:40:34.989Z,99227.00
2022-09-16T09:43:16.440Z,99225.40
2022-09-16T09:46:23.650Z,99228.20
2022-09-16T09:49:11.546Z,99217.20
2022-09-16T09:51:55.283Z,99215.40
2022-09-16T09:54:32.631Z,99209.20
2022-09-16T09:57:15.371Z,99197.60
2022-09-16T09:59:57.134Z,99202.40
2022-09-16T10:02:31.226Z,99194.80
2022-09-16T10:05:07.301Z,99189.20
2022-09-16T10:07:42.229Z,99192.00
2022-09-16T10:10:21.816Z,99196.80
2022-09-16T10:12:56.462Z,99197.80
2022-09-16T10:15:34.493Z,99190.20
2022-09-16T10:18:24.191Z,99185.80
2022-09-16T10:21:11.646Z,99188.80
2022-09-16T10:24:00.085Z,99184.80
2022-09-16T10:26:42.774Z,99173.80
2022-09-16T10:29:21.729Z,99177.00
2022-09-16T10:31:59.301Z,99173.40
2022-09-16T10:34:38.891Z,99170.00
2022-09-16T10:37:22.324Z,99164.80
2022-09-16T10:40:00.259Z,99168.40
2022-09-16T10:42:34.865Z,99162.00
2022-09-16T10:45:24.116Z,99165.80
2022-09-16T10:48:05.035Z,99164.60
2022-09-16T10:50:41.203Z,99170.20
2022-09-16T10:53:32.444Z,99170.40
2022-09-16T10:56:17.022Z,99174.60
2022-09-16T10:58:51.667Z,99178.60
2022-09-16T11:01:45.733Z,99178.60
2022-09-16T11:05:07.944Z,99171.20
2022-09-16T11:07:53.950Z,99169.60
2022-09-16T11:10:39.110Z,99167.60
2022-09-16T11:13:34.862Z,99167.00
2022-09-16T11:16:42.746Z,99161.00
2022-09-16T11:19:26.782Z,99172.60
2022-09-16T11:22:27.201Z,99173.20
2022-09-16T11:25:30.998Z,99179.40
2022-09-16T11:28:27.581Z,99185.00
2022-09-16T11:31:19.825Z,99184.40
2022-09-16T11:34:01.528Z,99179.80
2022-09-16T11:36:57.010Z,99165.80
2022-09-16T11:39:57.922Z,99164.20
2022-09-16T11:42:40.886Z,99153.80
2022-09-16T11:45:37.252Z,99145.20
2022-09-16T11:48:49.009Z,99146.20
2022-09-16T11:51:43.139Z,99151.00
2022-09-16T11:54:41.813Z,99150.40
2022-09-16T11:57:27.893Z,99163.40
2022-09-16T12:00:07.377Z,99162.80
2022-09-16T12:02:54.429Z,99164.80
2022-09-16T12:05:37.087Z,99161.80
2022-09-16T12:08:30.155Z,99161.60
2022-09-16T12:11:12.723Z,99156.80
2022-09-16T12:14:05.179Z,99155.20
2022-09-16T12:16:50.134Z,99153.40
2022-09-16T12:19:35.290Z,99148.00
2022-09-16T12:22:16.362Z,99145.80
2022-09-16T12:25:01.735Z,99142.20
2022-09-16T12:27:56.945Z,99134.40
2022-09-16T12:30:43.505Z,99139.20
2022-09-16T12:33:23.681Z,99128.00
2022-09-16T12:36:05.757Z,99124.40
2022-09-16T12:38:40.712Z,99127.20
2022-09-16T12:42:07.206Z,99124.20
2022-09-16T12:45:20.607Z,99118.20
2022-09-16T12:48:37.920Z,99118.60
2022-09-16T12:51:37.909Z,99115.40
2022-09-16T12:55:07.700Z,99113.40
2022-09-16T12:58:04.329Z,99106.60
2022-09-16T13:00:52.362Z,99104.60
2022-09-16T13:03:31.793Z,99099.80
2022-09-16T13:06:22.639Z,99104.40
2022-09-16T13:08:59.838Z,99103.80
2022-09-16T13:14:33.355Z,99092.80
2022-09-16T13:17:08.017Z,99091.00
2022-09-16T13:19:51.143Z,99087.40
2022-09-16T13:22:37.647Z,99085.40
2022-09-16T13:25:29.194Z,99090.40
2022-09-16T13:28:05.770Z,99078.20
2022-09-16T13:30:42.884Z,99082.60
2022-09-16T13:33:31.897Z,99076.40
2022-09-16T13:36:33.210Z,99088.40
2022-09-16T13:39:14.632Z,99091.00
2022-09-16T13:41:51.170Z,99101.20
2022-09-16T13:44:45.474Z,99124.80
2022-09-16T13:47:40.289Z,99121.40
2022-09-16T13:50:26.129Z,99131.40
2022-09-16T13:53:12.876Z,99137.80
2022-09-16T13:55:51.020Z,99136.00
2022-09-16T13:58:37.021Z,99125.60
2022-09-16T14:01:28.021Z,99126.80
2022-09-16T14:04:24.301Z,99126.20
2022-09-16T14:07:19.483Z,99118.80
2022-09-16T14:10:08.928Z,99114.80
2022-09-16T14:13:07.512Z,99122.00
2022-09-16T14:15:47.734Z,99118.40
2022-09-16T14:18:27.898Z,99117.40
2022-09-16T14:21:07.093Z,99111.40
2022-09-16T14:23:41.105Z,99107.20
2022-09-16T14:26:22.520Z,99100.60
2022-09-16T14:29:07.352Z,99095.60
2022-09-16T14:31:45.431Z,99101.80
2022-09-16T14:34:27.898Z,99095.20
2022-09-16T14:37:05.868Z,99097.80
2022-09-16T14:39:55.229Z,99098.40
2022-09-16T14:42:31.310Z,99103.60
2022-09-16T14:45:09.463Z,99098.80
2022-09-16T14:47:51.727Z,99102.60
2022-09-16T14:50:32.276Z,99084.60
2022-09-16T14:53:26.888Z,99092.60
2022-09-16T14:56:21.372Z,99092.40
2022-09-16T14:58:56.988Z,99098.60
2022-09-16T15:01:33.121Z,99099.60
2022-09-16T15:04:13.196Z,99105.20
2022-09-16T15:06:55.193Z,99106.40
2022-09-16T15:09:44.961Z,99113.80
2022-09-16T15:12:30.661Z,99110.80
2022-09-16T15:15:18.444Z,99109.80
2022-09-16T15:18:01.644Z,99110.80
2022-09-16T15:20:41.051Z,99113.80
2022-09-16T15:23:27.875Z,99113.00
2022-09-16T15:26:14.482Z,99112.00
2022-09-16T15:28:59.387Z,99105.80
2022-09-16T15:31:40.933Z,99093.00
2022-09-16T15:34:28.053Z,99088.80
2022-09-16T15:37:21.934Z,99088.80
2022-09-16T15:39:56.205Z,99081.00
2022-09-16T15:42:30.782Z,99075.00
2022-09-16T15:45:16.552Z,99074.60
2022-09-16T15:48:03.437Z,99074.80
2022-09-16T15:50:51.226Z,99070.40
2022-09-16T15:53:39.766Z,99067.80
2022-09-16T15:56:29.727Z,99070.00
2022-09-16T15:59:07.879Z,99069.00
2022-09-16T16:01:55.684Z,99067.20
2022-09-16T16:04:34.269Z,99068.80
2022-09-16T16:07:10.814Z,99067.60
2022-09-16T16:09:46.670Z,99072.60
2022-09-16T16:12:21.920Z,99071.60
2022-09-16T16:14:57.331Z,99074.60
2022-09-16T16:17:33.411Z,99077.60
2022-09-16T16:20:12.158Z,99085.80
2022-09-16T16:22:46.761Z,99083.40
2022-09-16T16:25:21.475Z,99094.00
2022-09-16T16:27:55.747Z,99097.80
2022-09-16T16:30:31.206Z,99101.60
2022-09-16T16:33:08.240Z,99106.60
2022-09-16T16:35:42.457Z,99113.40
2022-09-16T16:38:17.051Z,99120.80
2022-09-16T16:40:56.105Z,99121.20
2022-09-16T16:43:31.764Z,99124.40
2022-09-16T16:46:06.128Z,99127.80
2022-09-16T16:48:42.737Z,99126.00
2022-09-16T16:51:19.209Z,99123.80
2022-09-16T16:53:53.327Z,99129.00
2022-09-16T16:56:27.384Z,99134.60
2022-09-16T16:59:01.513Z,99135.60
2022-09-16T17:01:36.263Z,99133.20
2022-09-16T17:04:10.747Z,99136.80
2022-09-16T17:06:47.108Z,99134.80
2022-09-16T17:09:24.373Z,99142.20
2022-09-16T17:12:01.615Z,99141.60
2022-09-16T17:14:36.471Z,99145.60
2022-09-16T17:17:10.848Z,99150.00
2022-09-16T17:19:45.269Z,99155.40
2022-09-16T17:22:19.139Z,99161.20
2022-09-16T17:24:53.148Z,99155.60
2022-09-16T17:27:28.038Z,99158.60
2022-09-16T17:30:02.301Z,99158.40
2022-09-16T17:32:36.564Z,99159.40
2022-09-16T17:35:12.123Z,99167.60
2022-09-16T17:37:46.662Z,99167.40
2022-09-16T17:40:20.895Z,99171.40
2022-09-16T17:42:57.060Z,99160.00
2022-09-16T17:45:33.519Z,99163.00
2022-09-16T17:48:07.946Z,99160.60
2022-09-16T17:50:46.622Z,99160.40
2022-09-16T17:53:29.707Z,99165.60
2022-09-16T17:56:13.053Z,99164.20
2022-09-16T17:58:49.654Z,99158.60
2022-09-16T18:01:27.741Z,99164.00
2022-09-16T18:04:02.378Z,99169.60
2022-09-16T18:06:45.812Z,99167.00
2022-09-16T18:09:21.306Z,99171.60
2022-09-16T18:11:58.571Z,99171.20
2022-09-16T18:14:37.473Z,99171.80
2022-09-16T18:17:29.015Z,99171.00
2022-09-16T18:20:18.123Z,99172.40
2022-09-16T18:23:02.904Z,99167.40
2022-09-16T18:25:44.858Z,99170.80
2022-09-16T18:28:20.922Z,99168.80
2022-09-16T18:31:08.839Z,99165.20
2022-09-16T18:33:44.267Z,99167.40
2022-09-16T18:36:27.888Z,99171.80
2022-09-16T18:39:03.232Z,99176.40
2022-09-16T18:41:42.407Z,99183.00
2022-09-16T18:44:20.917Z,99182.60
2022-09-16T18:46:56.257Z,99181.40
2022-09-16T18:49:30.516Z,99185.40
2022-09-16T18:52:09.312Z,99184.00
2022-09-16T18:54:46.969Z,99184.40
2022-09-16T18:57:23.693Z,99184.20
2022-09-16T19:00:00.092Z,99186.60
2022-09-16T19:02:38.002Z,99184.40
2022-09-16T19:05:13.132Z,99187.60
2022-09-16T19:07:48.349Z,99178.80
2022-09-16T19:10:26.519Z,99184.20
2022-09-16T19:13:07.037Z,99183.20
2022-09-16T19:15:41.595Z,99182.20
2022-09-16T19:18:18.265Z,99183.60
2022-09-16T19:20:53.947Z,99180.80
2022-09-16T19:23:29.096Z,99178.40
2022-09-16T19:26:07.681Z,99176.20
2022-09-16T19:28:42.861Z,99178.40
2022-09-16T19:31:19.186Z,99177.80
2022-09-16T19:33:59.215Z,99177.20
2022-09-16T19:39:28.382Z,99181.40
2022-09-16T19:42:04.392Z,99175.00
2022-09-16T19:44:42.703Z,99175.40
2022-09-16T19:47:17.228Z,99172.20
2022-09-16T19:49:53.711Z,99172.00
2022-09-16T19:52:28.600Z,99177.80
2022-09-16T19:55:02.624Z,99175.20
2022-09-16T19:57:37.584Z,99176.20
2022-09-16T20:00:15.521Z,99181.20
2022-09-16T20:02:50.358Z,99181.20
2022-09-16T20:05:24.589Z,99178.80
2022-09-16T20:07:59.351Z,99169.80
2022-09-16T20:10:35.346Z,99174.80
2022-09-16T20:13:09.673Z,99173.20
2022-09-16T20:15:46.528Z,99176.20
2022-09-16T20:18:20.696Z,99180.60
2022-09-16T20:21:01.672Z,99185.80
2022-09-16T20:23:37.217Z,99185.80
2022-09-16T20:26:15.228Z,99186.40
2022-09-16T20:28:51.645Z,99189.20
2022-09-16T20:31:28.987Z,99189.40
2022-09-16T20:34:04.258Z,99192.80
2022-09-16T20:36:41.656Z,99193.00
2022-09-16T20:39:16.364Z,99194.20
2022-09-16T20:41:55.839Z,99189.80
2022-09-16T20:44:29.816Z,99197.40
2022-09-16T20:47:04.228Z,99194.40
2022-09-16T20:49:38.538Z,99196.80
2022-09-16T20:52:12.753Z,99196.40
2022-09-16T20:54:47.078Z,99196.00
2022-09-16T20:57:21.608Z,99203.60
2022-09-16T20:59:55.926Z,99202.60
2022-09-16T21:02:30.394Z,99196.00
2022-09-16T21:05:05.188Z,99195.80
2022-09-16T21:07:39.627Z,99191.40
2022-09-16T21:10:15.011Z,99188.60
2022-09-16T21:12:48.951Z,99192.80
2022-09-16T21:15:23.212Z,99199.60
2022-09-16T21:17:59.112Z,99196.20
2022-09-16T21:20:33.022Z,99194.40
2022-09-16T21:23:06.949Z,99196.40
2022-09-16T21:25:42.032Z,99205.80
2022-09-16T21:28:16.225Z,99199.80
2022-09-16T21:30:56.345Z,99198.80
2022-09-16T21:33:45.620Z,99206.00
2022-09-16T21:36:20.667Z,99206.20
2022-09-16T21:38:55.211Z,99202.60
2022-09-16T21:41:30.870Z,99208.00
2022-09-16T21:44:06.854Z,99211.60
2022-09-16T21:46:45.293Z,99207.00
2022-09-16T21:49:25.541Z,99207.80
2022-09-16T21:52:03.436Z,99208.00
2022-09-16T21:54:37.412Z,99204.00
2022-09-16T21:57:11.673Z,99204.20
2022-09-16T21:59:45.613Z,99205.40
2022-09-16T22:02:19.569Z,99195.80
2022-09-16T22:04:53.399Z,99197.00
2022-09-16T22:07:27.464Z,99194.40
2022-09-16T22:10:01.440Z,99192.60
2022-09-16T22:12:35.277Z,99195.80
2022-09-16T22:15:18.068Z,99194.20
2022-09-16T22:17:54.226Z,99196.20
2022-09-16T22:20:28.371Z,99190.00
2022-09-16T22:23:02.040Z,99195.60
2022-09-16T22:25:37.703Z,99191.20
2022-09-16T22:28:11.931Z,99188.60
2022-09-16T22:30:46.167Z,99189.00
2022-09-16T22:33:20.108Z,99192.20
2022-09-16T22:35:54.170Z,99191.60
2022-09-16T22:38:28.202Z,99191.80
2022-09-16T22:41:05.159Z,99186.00
2022-09-16T22:43:41.669Z,99183.00
2022-09-16T22:46:19.370Z,99185.00
2022-09-16T22:48:54.129Z,99189.60
2022-09-16T22:51:30.606Z,99182.00
2022-09-16T22:54:06.126Z,99191.60
2022-09-16T22:56:40.508Z,99189.80
2022-09-16T22:59:20.848Z,99188.20
2022-09-16T23:01:55.221Z,99187.80
2022-09-16T23:04:29.816Z,99188.40
2022-09-16T23:07:04.259Z,99187.40
2022-09-16T23:09:37.941Z,99181.80
2022-09-16T23:12:15.091Z,99181.20
2022-09-16T23:14:48.952Z,99172.20
2022-09-16T23:17:22.721Z,99172.20
2022-09-16T23:19:56.712Z,99166.00
2022-09-16T23:22:31.056Z,99166.80
2022-09-16T23:25:05.146Z,99168.40
2022-09-16T23:27:39.541Z,99170.20
2022-09-16T23:30:15.802Z,99169.80
2022-09-16T23:32:49.829Z,99168.20
2022-09-16T23:35:23.715Z,99166.20
2022-09-16T23:37:57.989Z,99165.60
2022-09-16T23:40:31.949Z,99165.40
2022-09-16T23:43:06.071Z,99170.60
2022-09-16T23:45:40.065Z,99168.00
2022-09-16T23:48:14.293Z,99167.40
2022-09-16T23:50:48.365Z,99171.00
2022-09-16T23:53:22.623Z,99172.80
2022-09-16T23:55:56.926Z,99167.00
2022-09-16T23:58:31.307Z,99168.00
